Time;durP1;ratioP1;P1;durP2;ratioP2;P2;SDS_P1;SDS_P2;PMS_P1;PMS_P2;Temp;Humidity;BMP_temperature;BMP_pressure;BME280_temperature;BME280_humidity;BME280_pressure;Samples;Min_cycle;Max_cycle;Signal;HPM_P1;HPM_P2
2024/02/28 00:02:04;;;;;;;4.03;3.72;;;6.00;99.90;;;;;;5048900;28;20210;-79
2024/02/28 00:04:31;;;;;;;4.20;3.92;;;6.00;99.90;;;;;;5048324;28;20234;-77
2024/02/28 00:06:59;;;;;;;4.50;4.20;;;6.00;99.90;;;;;;5047308;28;20659;-77
2024/02/28 00:09:26;;;;;;;4.72;4.43;;;6.00;99.90;;;;;;5046128;28;20214;-77
2024/02/28 00:11:53;;;;;;;4.20;3.90;;;6.00;99.90;;;;;;5047083;28;20253;-78
2024/02/28 00:14:20;;;;;;;4.00;3.70;;;6.00;99.90;;;;;;5046155;28;20230;-76
2024/02/28 00:16:47;;;;;;;4.13;3.90;;;6.00;99.90;;;;;;5045030;28;20218;-78
2024/02/28 00:19:17;;;;;;;4.07;3.78;;;6.00;99.90;;;;;;5045912;28;20230;-75
2024/02/28 00:21:44;;;;;;;3.60;3.40;;;6.10;99.90;;;;;;5043755;28;21989;-78
2024/02/28 00:24:11;;;;;;;3.50;3.30;;;6.10;99.90;;;;;;5047771;28;20250;-79
2024/02/28 00:26:41;;;;;;;4.30;3.92;;;6.10;99.90;;;;;;5047361;28;20245;-78
2024/02/28 00:29:08;;;;;;;4.40;4.10;;;6.10;99.90;;;;;;5047293;28;20276;-78
2024/02/28 00:31:35;;;;;;;4.05;3.85;;;6.10;99.90;;;;;;5044066;28;20254;-76
2024/02/28 00:34:02;;;;;;;4.20;3.90;;;6.10;99.90;;;;;;5042098;28;20348;-77
2024/02/28 00:36:30;;;;;;;4.57;4.22;;;6.10;99.90;;;;;;5044695;28;20222;-76
2024/02/28 00:38:57;;;;;;;4.40;4.10;;;6.10;99.90;;;;;;5043921;28;20281;-77
2024/02/28 00:41:24;;;;;;;4.45;4.15;;;6.10;99.90;;;;;;5040298;28;20971;-77
2024/02/28 00:43:51;;;;;;;4.40;4.10;;;6.00;99.90;;;;;;5045527;28;20233;-79
2024/02/28 00:46:18;;;;;;;4.90;4.60;;;6.00;99.90;;;;;;5049208;28;20230;-75
2024/02/28 00:48:45;;;;;;;5.03;4.72;;;6.00;99.90;;;;;;5045144;28;20211;-77
2024/02/28 00:51:11;;;;;;;5.20;4.90;;;6.00;99.90;;;;;;5041684;28;20253;-76
2024/02/28 00:53:40;;;;;;;4.60;4.30;;;6.00;99.90;;;;;;5046337;28;20233;-79
2024/02/28 00:56:07;;;;;;;4.60;4.30;;;6.00;99.90;;;;;;5046300;28;20219;-78
2024/02/28 00:58:34;;;;;;;4.53;4.22;;;6.00;99.90;;;;;;5046203;28;20196;-75
2024/02/28 01:01:09;;;;;;;5.05;4.75;;;6.00;99.90;;;;;;5046238;28;20199;-80
2024/02/28 01:03:36;;;;;;;4.93;4.57;;;6.00;99.90;;;;;;5049741;28;20225;-78
2024/02/28 01:06:04;;;;;;;4.65;4.35;;;6.00;99.90;;;;;;5047306;28;20753;-79
2024/02/28 01:08:31;;;;;;;4.75;4.45;;;6.00;99.90;;;;;;5039686;28;20263;-77
2024/02/28 01:10:59;;;;;;;4.80;4.40;;;6.00;99.90;;;;;;5043129;28;20288;-78
2024/02/28 01:13:26;;;;;;;5.28;4.90;;;6.00;99.90;;;;;;5045527;28;20924;-79
2024/02/28 01:15:54;;;;;;;4.72;4.43;;;6.00;99.90;;;;;;5048109;28;20673;-77
2024/02/28 01:18:22;;;;;;;4.90;4.60;;;6.00;99.90;;;;;;5044329;28;20242;-77
2024/02/28 01:20:50;;;;;;;4.43;4.13;;;6.10;99.90;;;;;;5042826;28;20254;-78
2024/02/28 01:23:17;;;;;;;4.53;4.22;;;6.10;99.90;;;;;;5038446;28;20234;-77
2024/02/28 01:25:44;;;;;;;4.40;4.10;;;6.10;99.90;;;;;;5039216;28;20242;-77
2024/02/28 01:28:12;;;;;;;4.50;4.20;;;6.10;99.90;;;;;;5043155;28;20277;-78
2024/02/28 01:30:39;;;;;;;4.68;4.38;;;6.10;99.90;;;;;;5045197;28;20254;-79
2024/02/28 01:33:06;;;;;;;4.20;4.00;;;6.10;99.90;;;;;;5048435;28;20815;-77
2024/02/28 01:35:33;;;;;;;4.45;4.15;;;6.10;99.90;;;;;;5046592;28;20384;-78
2024/02/28 01:38:00;;;;;;;4.80;4.50;;;6.10;99.90;;;;;;5045535;28;20583;-78
2024/02/28 01:40:27;;;;;;;4.93;4.63;;;6.10;99.90;;;;;;5044102;28;20300;-78
2024/02/28 01:42:54;;;;;;;4.65;4.35;;;6.10;99.90;;;;;;5044570;28;20218;-79
2024/02/28 01:45:22;;;;;;;5.35;4.97;;;6.20;99.90;;;;;;5049084;28;20292;-79
2024/02/28 01:47:53;;;;;;;4.25;4.03;;;6.20;99.90;;;;;;5041799;28;20238;-77
2024/02/28 01:50:20;;;;;;;5.00;4.70;;;6.20;99.90;;;;;;5044155;28;20276;-79
2024/02/28 01:52:47;;;;;;;5.03;4.70;;;6.20;99.90;;;;;;5041834;28;20277;-77
2024/02/28 01:55:14;;;;;;;5.35;4.95;;;6.20;99.90;;;;;;5045771;28;20323;-76
2024/02/28 01:57:41;;;;;;;4.47;4.18;;;6.20;99.90;;;;;;5044357;28;20242;-78
2024/02/28 02:00:10;;;;;;;4.72;4.43;;;6.20;99.90;;;;;;5041828;28;20296;-78
2024/02/28 02:02:38;;;;;;;5.07;4.68;;;6.20;99.90;;;;;;5043756;28;20218;-78
2024/02/28 02:05:06;;;;;;;5.55;5.15;;;6.20;99.90;;;;;;5043898;28;20234;-77
2024/02/28 02:07:33;;;;;;;5.78;5.38;;;6.10;99.90;;;;;;5045784;28;20246;-78
2024/02/28 02:10:00;;;;;;;5.90;5.50;;;6.10;99.90;;;;;;5040916;28;20245;-77
2024/02/28 02:12:27;;;;;;;5.72;5.32;;;6.10;99.90;;;;;;5047292;28;20219;-78
2024/02/28 02:14:55;;;;;;;5.63;5.13;;;6.10;99.90;;;;;;5049437;28;20261;-78
2024/02/28 02:17:22;;;;;;;6.40;5.97;;;6.10;99.90;;;;;;5045250;28;20218;-78
2024/02/28 02:19:50;;;;;;;6.00;5.57;;;6.00;99.90;;;;;;5044666;28;20280;-78
2024/02/28 02:22:18;;;;;;;5.82;5.20;;;6.00;99.90;;;;;;5043766;28;20309;-78
2024/02/28 02:24:47;;;;;;;5.63;5.22;;;6.00;99.90;;;;;;5044995;28;20219;-77
2024/02/28 02:27:14;;;;;;;5.88;5.47;;;6.00;99.90;;;;;;5041827;28;20284;-79
2024/02/28 02:29:40;;;;;;;5.30;4.80;;;6.00;99.90;;;;;;5045769;28;20246;-78
2024/02/28 02:32:08;;;;;;;5.53;5.13;;;6.10;99.90;;;;;;5043039;28;20223;-78
2024/02/28 02:34:35;;;;;;;5.78;5.38;;;6.10;99.90;;;;;;5040828;28;20226;-75
2024/02/28 02:37:02;;;;;;;5.60;5.00;;;6.10;99.90;;;;;;5046658;28;20306;-79
2024/02/28 02:39:28;;;;;;;4.70;4.40;;;6.00;99.90;;;;;;5043536;28;20222;-78
2024/02/28 02:41:57;;;;;;;5.93;5.43;;;6.10;99.90;;;;;;5043959;28;20214;-78
2024/02/28 02:44:24;;;;;;;5.13;4.72;;;6.00;99.90;;;;;;5042363;28;20223;-78
2024/02/28 02:46:51;;;;;;;5.72;5.22;;;6.00;99.90;;;;;;5042891;28;20814;-78
2024/02/28 02:49:18;;;;;;;5.05;4.65;;;6.00;99.90;;;;;;5041939;28;20238;-79
2024/02/28 02:51:45;;;;;;;5.82;5.43;;;6.00;99.90;;;;;;5041306;28;20732;-76
2024/02/28 02:54:12;;;;;;;5.25;4.95;;;6.00;99.90;;;;;;5049200;28;20258;-78
2024/02/28 02:56:42;;;;;;;4.72;4.43;;;6.00;99.90;;;;;;5048557;28;20223;-78
2024/02/28 02:59:11;;;;;;;5.53;5.13;;;6.10;99.90;;;;;;5046975;28;20223;-78
2024/02/28 03:01:37;;;;;;;5.90;5.50;;;6.00;99.90;;;;;;5044886;28;20250;-77
2024/02/28 03:04:05;;;;;;;5.85;5.45;;;6.00;99.90;;;;;;5044047;28;20287;-77
2024/02/28 03:06:32;;;;;;;5.60;5.20;;;6.00;99.90;;;;;;5045386;28;20304;-78
2024/02/28 03:08:59;;;;;;;5.75;5.30;;;6.00;99.90;;;;;;5039936;28;20225;-77
2024/02/28 03:11:25;;;;;;;6.53;6.03;;;6.00;99.90;;;;;;5047125;28;20227;-77
2024/02/28 03:13:52;;;;;;;6.72;6.13;;;6.00;99.90;;;;;;5043152;28;20249;-78
2024/02/28 03:16:21;;;;;;;6.95;6.38;;;6.00;99.90;;;;;;5045243;28;20261;-77
2024/02/28 03:18:48;;;;;;;6.22;5.75;;;6.00;99.90;;;;;;5042410;28;20652;-77
2024/02/28 03:21:14;;;;;;;6.22;5.72;;;6.00;99.90;;;;;;5045766;28;20250;-77
2024/02/28 03:23:41;;;;;;;7.28;6.57;;;6.00;99.90;;;;;;5042601;28;20269;-78
2024/02/28 03:26:08;;;;;;;7.53;6.93;;;6.00;99.90;;;;;;5043222;28;20312;-78
2024/02/28 03:28:36;;;;;;;7.18;6.57;;;5.90;99.90;;;;;;5044622;28;20231;-77
2024/02/28 03:31:03;;;;;;;6.78;6.28;;;5.90;99.90;;;;;;5042155;28;20199;-76
2024/02/28 03:33:32;;;;;;;5.68;5.28;;;6.00;99.90;;;;;;5044405;28;20219;-77
2024/02/28 03:35:59;;;;;;;5.63;5.22;;;6.00;99.90;;;;;;5046794;28;20226;-78
2024/02/28 03:38:26;;;;;;;5.40;4.90;;;6.00;99.90;;;;;;5050079;28;20260;-77
2024/02/28 03:40:53;;;;;;;6.00;5.60;;;6.00;99.90;;;;;;5047239;28;20242;-78
2024/02/28 03:43:20;;;;;;;5.30;4.90;;;6.00;99.90;;;;;;5044153;28;20218;-79
2024/02/28 03:45:48;;;;;;;6.03;5.55;;;6.00;99.90;;;;;;5049409;28;20234;-79
2024/02/28 03:48:15;;;;;;;5.60;5.20;;;6.00;99.90;;;;;;5045698;28;20233;-79
2024/02/28 03:50:43;;;;;;;5.22;4.85;;;6.00;99.90;;;;;;5045288;28;20215;-77
2024/02/28 03:53:10;;;;;;;6.10;5.70;;;6.00;99.90;;;;;;5044219;28;20223;-78
2024/02/28 03:55:37;;;;;;;5.97;5.57;;;6.00;99.90;;;;;;5046466;28;20289;-76
2024/02/28 03:58:06;;;;;;;5.57;5.18;;;5.90;99.90;;;;;;5040802;28;20229;-78
2024/02/28 04:00:33;;;;;;;5.85;5.45;;;6.00;99.90;;;;;;5042302;28;20215;-78
2024/02/28 04:03:00;;;;;;;4.68;4.38;;;6.00;99.90;;;;;;5047422;28;20729;-76
2024/02/28 04:05:27;;;;;;;4.70;4.40;;;6.00;99.90;;;;;;5039634;28;20250;-77
2024/02/28 04:07:56;;;;;;;4.63;4.32;;;6.10;99.90;;;;;;5043128;28;20506;-79
2024/02/28 04:10:23;;;;;;;4.68;4.25;;;6.10;99.90;;;;;;5044140;28;20328;-77
2024/02/28 04:12:50;;;;;;;5.30;5.00;;;6.10;99.90;;;;;;5041508;28;20312;-76
2024/02/28 04:15:17;;;;;;;4.88;4.55;;;6.10;99.90;;;;;;5044821;28;20230;-78
2024/02/28 04:17:43;;;;;;;4.80;4.50;;;6.10;99.90;;;;;;5041206;28;20273;-78
2024/02/28 04:20:11;;;;;;;4.95;4.65;;;6.10;99.90;;;;;;5044188;28;20226;-79
2024/02/28 04:22:38;;;;;;;6.65;6.15;;;6.10;99.90;;;;;;5041156;28;20226;-75
2024/02/28 04:25:09;;;;;;;6.30;5.80;;;6.10;99.90;;;;;;5044527;28;20262;-79
2024/02/28 04:27:36;;;;;;;6.53;6.05;;;6.00;99.90;;;;;;5042600;28;20811;-78
2024/02/28 04:30:03;;;;;;;6.05;5.65;;;6.00;99.90;;;;;;5044968;28;20519;-78
2024/02/28 04:32:30;;;;;;;6.57;6.07;;;5.90;99.90;;;;;;5044574;28;20223;-78
2024/02/28 04:34:57;;;;;;;5.97;5.47;;;6.00;99.90;;;;;;5040638;28;20251;-78
2024/02/28 04:37:24;;;;;;;5.85;5.45;;;6.00;99.90;;;;;;5043558;28;20283;-77
2024/02/28 04:39:51;;;;;;;6.00;5.60;;;6.00;99.90;;;;;;5047805;28;20642;-79
2024/02/28 04:42:19;;;;;;;5.18;4.80;;;6.10;99.90;;;;;;5044983;28;20269;-78
2024/02/28 04:44:46;;;;;;;5.40;5.00;;;6.10;99.90;;;;;;5042215;28;20250;-77
2024/02/28 04:47:13;;;;;;;6.57;6.07;;;6.10;99.90;;;;;;5045389;28;20701;-76
2024/02/28 04:49:40;;;;;;;6.47;5.97;;;6.10;99.90;;;;;;5044378;28;20345;-77
2024/02/28 04:52:07;;;;;;;6.75;6.25;;;6.10;99.90;;;;;;5042996;28;20219;-77
2024/02/28 04:54:34;;;;;;;7.03;6.45;;;6.10;99.90;;;;;;5047095;28;20222;-77
2024/02/28 04:57:02;;;;;;;6.65;6.15;;;6.10;99.90;;;;;;5044938;28;20219;-78
2024/02/28 04:59:31;;;;;;;6.68;6.18;;;6.10;99.90;;;;;;5046524;28;21211;-77
2024/02/28 05:01:58;;;;;;;6.18;5.78;;;6.10;99.90;;;;;;5044521;28;20913;-78
2024/02/28 05:04:25;;;;;;;6.13;5.63;;;6.10;99.90;;;;;;5039940;28;20297;-77
2024/02/28 05:06:52;;;;;;;5.82;5.43;;;6.10;99.90;;;;;;5038907;28;20223;-78
2024/02/28 05:09:19;;;;;;;5.78;5.38;;;6.10;99.90;;;;;;5044218;28;20594;-78
2024/02/28 05:11:46;;;;;;;5.97;5.47;;;6.10;99.90;;;;;;5041963;28;20261;-77
2024/02/28 05:14:13;;;;;;;6.20;5.70;;;6.10;99.90;;;;;;5040520;28;20222;-77
2024/02/28 05:16:41;;;;;;;5.32;5.03;;;6.10;99.90;;;;;;5042991;28;20250;-79
2024/02/28 05:19:09;;;;;;;6.40;5.90;;;6.10;99.90;;;;;;5043281;28;20327;-77
2024/02/28 05:21:41;;;;;;;6.68;6.18;;;6.10;99.90;;;;;;5040264;28;20219;-77
2024/02/28 05:24:09;;;;;;;6.93;6.43;;;6.10;99.90;;;;;;5041346;28;20231;-77
2024/02/28 05:26:36;;;;;;;6.65;6.15;;;6.10;99.90;;;;;;5045908;28;20222;-78
2024/02/28 05:29:04;;;;;;;5.72;5.32;;;6.10;99.90;;;;;;5040914;28;20250;-77
2024/02/28 05:31:32;;;;;;;5.90;5.50;;;6.10;99.90;;;;;;5044749;28;20254;-78
2024/02/28 05:34:02;;;;;;;5.53;5.13;;;6.10;99.90;;;;;;5038709;28;20717;-79
2024/02/28 05:36:30;;;;;;;5.80;5.40;;;6.10;99.90;;;;;;5043491;28;20600;-79
2024/02/28 05:38:59;;;;;;;5.75;5.35;;;6.10;99.90;;;;;;5044187;28;20242;-78
2024/02/28 05:41:26;;;;;;;6.15;5.72;;;6.10;99.90;;;;;;5041500;28;20253;-79
2024/02/28 05:43:53;;;;;;;5.68;5.28;;;6.10;99.90;;;;;;5043494;28;20291;-79
2024/02/28 05:46:22;;;;;;;6.13;5.72;;;6.10;99.90;;;;;;5043997;28;20238;-76
2024/02/28 05:48:49;;;;;;;5.60;5.20;;;6.10;99.90;;;;;;5040844;28;20226;-77
2024/02/28 05:51:17;;;;;;;5.78;5.38;;;6.10;99.90;;;;;;5040994;28;20207;-77
2024/02/28 05:53:45;;;;;;;6.20;5.65;;;6.10;99.90;;;;;;5043530;28;20251;-78
2024/02/28 05:56:14;;;;;;;6.82;6.32;;;6.10;99.90;;;;;;5038031;28;20257;-76
2024/02/28 05:58:42;;;;;;;7.10;6.60;;;6.10;99.90;;;;;;5041809;28;20725;-77
2024/02/28 06:01:09;;;;;;;7.32;6.82;;;6.10;99.90;;;;;;5042565;28;20557;-77
2024/02/28 06:03:36;;;;;;;7.07;6.50;;;6.10;99.90;;;;;;5040298;28;20238;-78
2024/02/28 06:06:04;;;;;;;7.65;7.05;;;6.10;99.90;;;;;;5043136;28;20223;-79
2024/02/28 06:08:33;;;;;;;7.35;6.85;;;6.10;99.90;;;;;;5044366;28;20394;-78
2024/02/28 06:11:00;;;;;;;7.53;6.93;;;6.10;99.90;;;;;;5039148;28;20270;-77
2024/02/28 06:13:28;;;;;;;7.28;6.78;;;6.10;99.90;;;;;;5043866;28;20686;-78
2024/02/28 06:15:55;;;;;;;7.03;6.53;;;6.10;99.90;;;;;;5045149;28;20535;-78
2024/02/28 06:18:23;;;;;;;7.72;7.13;;;6.10;99.90;;;;;;5046792;28;20231;-79
2024/02/28 06:20:50;;;;;;;6.72;6.22;;;6.10;99.90;;;;;;5042375;28;20621;-78
2024/02/28 06:23:17;;;;;;;6.70;6.20;;;6.10;99.90;;;;;;5040863;28;20313;-78
2024/02/28 06:25:45;;;;;;;6.47;5.97;;;6.10;99.90;;;;;;5041641;28;20226;-78
2024/02/28 06:28:14;;;;;;;5.63;5.22;;;6.20;99.90;;;;;;5046501;28;20787;-77
2024/02/28 06:30:41;;;;;;;5.55;5.15;;;6.20;99.90;;;;;;5043141;28;20210;-78
2024/02/28 06:33:09;;;;;;;5.50;5.10;;;6.20;99.90;;;;;;5047209;28;20820;-78
2024/02/28 06:35:36;;;;;;;7.10;6.60;;;6.20;99.90;;;;;;5049594;28;20218;-78
2024/02/28 06:38:03;;;;;;;7.57;7.00;;;6.20;99.90;;;;;;5047142;28;20226;-78
2024/02/28 06:40:30;;;;;;;8.30;7.60;;;6.20;99.90;;;;;;5045505;28;20226;-78
2024/02/28 06:42:58;;;;;;;7.85;7.15;;;6.20;99.90;;;;;;5049562;28;20786;-79
2024/02/28 06:45:25;;;;;;;7.70;7.10;;;6.10;99.90;;;;;;5046515;28;20564;-78
2024/02/28 06:47:52;;;;;;;7.35;6.70;;;6.10;99.90;;;;;;5044798;28;20215;-77
2024/02/28 06:50:19;;;;;;;6.88;6.38;;;6.10;99.90;;;;;;5049401;28;20252;-79
2024/02/28 06:52:46;;;;;;;6.57;6.07;;;6.10;99.90;;;;;;5047744;28;20218;-78
2024/02/28 06:55:14;;;;;;;7.00;6.50;;;6.10;99.90;;;;;;5048300;28;20226;-78
2024/02/28 06:57:42;;;;;;;5.70;5.30;;;6.20;99.90;;;;;;5043949;28;20790;-78
2024/02/28 07:00:12;;;;;;;5.88;5.45;;;6.20;99.90;;;;;;5046145;28;20223;-77
2024/02/28 07:02:40;;;;;;;5.93;5.43;;;6.30;99.90;;;;;;5045353;28;20220;-77
2024/02/28 07:05:07;;;;;;;7.05;6.55;;;6.30;99.90;;;;;;5049062;28;20258;-78
2024/02/28 07:07:34;;;;;;;5.72;5.32;;;6.30;99.90;;;;;;5049752;28;20219;-79
2024/02/28 07:10:03;;;;;;;6.15;5.75;;;6.30;99.90;;;;;;5048940;28;20242;-78
2024/02/28 07:12:30;;;;;;;6.30;5.80;;;6.30;99.90;;;;;;5047443;28;20223;-79
2024/02/28 07:14:56;;;;;;;6.13;5.63;;;6.30;99.90;;;;;;5046231;28;20225;-79
2024/02/28 07:17:25;;;;;;;6.82;6.32;;;6.30;99.90;;;;;;5043422;28;20374;-78
2024/02/28 07:19:52;;;;;;;8.02;7.43;;;6.30;99.90;;;;;;5041779;28;20246;-77
2024/02/28 07:22:19;;;;;;;7.50;6.90;;;6.30;99.90;;;;;;5040818;28;20214;-79
2024/02/28 07:24:46;;;;;;;8.98;8.18;;;6.30;99.90;;;;;;5043054;28;20246;-78
2024/02/28 07:27:13;;;;;;;8.68;7.97;;;6.30;99.90;;;;;;5045491;28;20688;-80
2024/02/28 07:29:39;;;;;;;8.55;7.85;;;6.40;99.90;;;;;;5041278;28;20292;-78
2024/02/28 07:32:07;;;;;;;9.80;9.00;;;6.40;99.90;;;;;;5038524;28;20321;-78
2024/02/28 07:34:38;;;;;;;8.50;7.80;;;6.40;99.90;;;;;;5041443;28;20276;-78
2024/02/28 07:37:05;;;;;;;8.73;8.02;;;6.50;99.90;;;;;;5041809;28;20276;-78
2024/02/28 07:39:32;;;;;;;8.32;7.63;;;6.50;99.90;;;;;;5045569;28;20218;-79
2024/02/28 07:41:59;;;;;;;8.25;7.65;;;6.60;99.90;;;;;;5045383;28;20219;-78
2024/02/28 07:44:30;;;;;;;8.52;7.82;;;6.60;99.90;;;;;;5040932;28;20246;-77
2024/02/28 07:46:57;;;;;;;8.73;7.97;;;6.60;99.90;;;;;;5040516;28;20301;-79
2024/02/28 07:49:24;;;;;;;9.98;9.18;;;6.70;99.90;;;;;;5038887;28;20307;-79
2024/02/28 07:51:52;;;;;;;10.50;9.60;;;6.70;99.90;;;;;;5041941;28;20260;-77
2024/02/28 07:54:19;;;;;;;15.80;11.45;;;6.80;99.90;;;;;;5042655;28;20286;-80
2024/02/28 07:56:46;;;;;;;10.15;8.80;;;6.80;99.90;;;;;;5049062;28;20230;-78
2024/02/28 07:59:13;;;;;;;10.73;9.82;;;6.80;99.90;;;;;;5049941;28;20231;-78
2024/02/28 08:01:40;;;;;;;10.70;9.80;;;6.80;99.90;;;;;;5048417;28;20241;-78
2024/02/28 08:04:07;;;;;;;9.95;9.10;;;6.80;99.90;;;;;;5042841;28;20360;-79
2024/02/28 08:06:34;;;;;;;10.10;9.20;;;6.80;99.90;;;;;;5053815;28;20227;-78
2024/02/28 08:09:04;;;;;;;12.02;9.68;;;6.90;99.90;;;;;;5046346;28;20226;-80
2024/02/28 08:11:31;;;;;;;14.75;9.82;;;6.90;99.90;;;;;;5049272;28;20215;-77
2024/02/28 08:13:58;;;;;;;12.93;10.02;;;6.90;99.90;;;;;;5049845;28;20227;-79
2024/02/28 08:16:25;;;;;;;10.55;9.50;;;6.90;99.90;;;;;;5048788;28;20910;-79
2024/02/28 08:18:51;;;;;;;10.70;9.80;;;6.80;99.90;;;;;;5039443;28;20227;-78
2024/02/28 08:21:19;;;;;;;10.02;9.13;;;6.90;99.90;;;;;;5037192;28;20346;-77
2024/02/28 08:23:47;;;;;;;9.68;8.80;;;6.90;99.90;;;;;;5040025;28;20209;-77
2024/02/28 08:26:15;;;;;;;9.70;8.90;;;6.90;99.90;;;;;;5039590;28;20215;-78
2024/02/28 08:28:42;;;;;;;9.38;8.65;;;7.00;99.90;;;;;;5038798;28;20206;-77
2024/02/28 08:31:09;;;;;;;95.32;12.43;;;7.00;99.90;;;;;;5039209;28;20289;-77
2024/02/28 08:33:36;;;;;;;9.70;8.82;;;7.10;99.90;;;;;;5039060;28;20206;-77
2024/02/28 08:36:03;;;;;;;12.60;11.50;;;7.10;99.90;;;;;;5037934;28;20301;-77
2024/02/28 08:38:30;;;;;;;11.77;10.77;;;7.10;99.90;;;;;;5037534;28;20372;-78
2024/02/28 08:40:57;;;;;;;11.88;10.88;;;7.00;99.90;;;;;;5036845;28;20270;-78
2024/02/28 08:43:26;;;;;;;12.93;11.68;;;7.00;99.90;;;;;;5038551;28;20553;-76
2024/02/28 08:45:54;;;;;;;12.43;11.32;;;7.00;99.90;;;;;;5038721;28;20258;-78
2024/02/28 08:48:21;;;;;;;12.00;10.90;;;7.00;99.90;;;;;;5038967;28;20257;-78
2024/02/28 08:50:47;;;;;;;11.35;10.35;;;7.00;99.90;;;;;;5038533;28;20273;-78
2024/02/28 08:53:14;;;;;;;11.30;10.30;;;7.00;99.90;;;;;;5040036;28;20241;-78
2024/02/28 08:55:41;;;;;;;11.27;10.27;;;7.10;99.90;;;;;;5042503;28;20214;-77
2024/02/28 08:58:08;;;;;;;11.00;10.00;;;7.20;99.90;;;;;;5037602;28;20258;-77
2024/02/28 09:00:37;;;;;;;9.95;9.10;;;7.20;99.90;;;;;;5037080;28;20351;-76
2024/02/28 09:03:05;;;;;;;10.70;9.70;;;7.30;99.90;;;;;;5039214;28;20220;-78
2024/02/28 09:05:32;;;;;;;10.02;9.13;;;7.30;99.90;;;;;;5040337;28;20958;-75
2024/02/28 09:07:59;;;;;;;10.65;9.73;;;7.40;99.90;;;;;;5049959;22;20203;-77
2024/02/28 09:10:26;;;;;;;10.38;9.48;;;7.40;99.90;;;;;;4997525;28;20652;-77
2024/02/28 09:12:53;;;;;;;11.45;10.43;;;7.50;99.90;;;;;;4994920;28;20302;-77
2024/02/28 09:15:21;;;;;;;10.93;9.93;;;7.50;99.90;;;;;;4988647;28;20299;-75
2024/02/28 09:17:49;;;;;;;10.82;9.93;;;7.50;99.90;;;;;;4989407;28;20316;-76
2024/02/28 09:20:16;;;;;;;11.15;10.23;;;7.60;99.90;;;;;;4992438;28;20243;-76
2024/02/28 09:22:44;;;;;;;10.93;9.93;;;7.70;99.90;;;;;;4989319;28;20414;-75
2024/02/28 09:25:11;;;;;;;115.32;20.90;;;7.70;99.90;;;;;;4996400;28;20738;-76
2024/02/28 09:27:38;;;;;;;23.27;11.77;;;8.20;99.90;;;;;;4995329;28;20228;-74
2024/02/28 09:30:06;;;;;;;14.30;10.60;;;8.40;99.90;;;;;;4995377;28;20236;-75
2024/02/28 09:32:33;;;;;;;12.68;10.50;;;8.30;99.90;;;;;;4990119;28;20240;-75
2024/02/28 09:35:03;;;;;;;10.95;9.90;;;8.20;99.90;;;;;;4991401;28;20243;-76
2024/02/28 09:37:30;;;;;;;11.82;10.75;;;8.20;99.90;;;;;;4995463;28;20224;-78
2024/02/28 09:39:57;;;;;;;10.00;9.07;;;8.20;99.90;;;;;;4996582;28;20719;-76
2024/02/28 09:42:25;;;;;;;9.40;8.50;;;8.30;99.90;;;;;;4993097;28;20253;-76
2024/02/28 09:44:51;;;;;;;10.10;9.20;;;8.50;99.90;;;;;;4995061;28;21653;-78
2024/02/28 09:47:21;;;;;;;9.05;8.25;;;8.70;99.90;;;;;;5001667;28;20310;-80
2024/02/28 09:49:51;;;;;;;8.38;7.68;;;8.90;99.90;;;;;;5013097;28;20274;-78
2024/02/28 09:52:19;;;;;;;10.20;9.30;;;9.20;99.90;;;;;;5009050;28;20255;-78
2024/02/28 09:54:46;;;;;;;10.93;9.98;;;9.20;99.90;;;;;;5011528;28;20252;-78
2024/02/28 09:57:14;;;;;;;9.40;8.60;;;9.30;99.90;;;;;;5013200;28;20219;-79
2024/02/28 09:59:42;;;;;;;9.45;8.55;;;9.40;99.90;;;;;;5009878;28;20305;-79
2024/02/28 10:02:12;;;;;;;10.02;9.13;;;9.40;99.90;;;;;;5014536;28;20274;-76
2024/02/28 10:04:40;;;;;;;9.57;8.68;;;9.50;99.90;;;;;;5012044;28;20227;-81
2024/02/28 10:07:14;;;;;;;9.38;8.65;;;9.60;99.90;;;;;;5014143;28;20827;-83
2024/02/28 10:09:43;;;;;;;8.30;7.50;;;9.80;99.90;;;;;;5001211;28;20321;-79
2024/02/28 10:12:10;;;;;;;10.15;9.25;;;10.10;99.90;;;;;;4995224;28;20338;-82
2024/02/28 10:14:38;;;;;;;10.38;9.45;;;10.40;99.90;;;;;;4993799;28;20298;-81
2024/02/28 10:17:05;;;;;;;9.68;8.77;;;10.60;99.90;;;;;;4993865;28;20228;-80
2024/02/28 10:19:32;;;;;;;10.45;9.50;;;10.70;99.90;;;;;;4994009;28;20856;-81
2024/02/28 10:22:00;;;;;;;9.38;8.68;;;10.60;99.90;;;;;;5000341;28;20694;-79
2024/02/28 10:24:27;;;;;;;8.45;7.75;;;10.30;99.90;;;;;;5003374;28;20294;-77
2024/02/28 10:26:56;;;;;;;10.20;9.32;;;10.30;99.90;;;;;;4994823;28;20460;-77
2024/02/28 10:29:23;;;;;;;9.95;8.98;;;10.20;99.90;;;;;;4989938;28;20236;-82
2024/02/28 10:31:50;;;;;;;10.73;9.73;;;10.10;99.90;;;;;;4989549;28;20235;-83
2024/02/28 10:34:18;;;;;;;8.50;7.78;;;10.10;99.90;;;;;;4994005;28;20789;-80
2024/02/28 10:36:46;;;;;;;8.38;7.57;;;10.20;99.90;;;;;;4992735;28;20220;-78
2024/02/28 10:39:14;;;;;;;8.20;7.57;;;10.50;99.90;;;;;;4989281;28;20748;-80
2024/02/28 10:41:42;;;;;;;8.73;7.97;;;10.60;99.90;;;;;;4986850;28;20384;-80
2024/02/28 10:44:11;;;;;;;8.75;8.00;;;10.70;99.90;;;;;;4992647;28;20256;-81
2024/02/28 10:46:39;;;;;;;8.27;7.65;;;10.80;99.90;;;;;;4992292;28;20232;-84
2024/02/28 10:49:07;;;;;;;8.18;7.38;;;10.80;99.90;;;;;;4995658;28;20746;-83
2024/02/28 10:51:36;;;;;;;8.45;7.75;;;10.80;99.90;;;;;;4988546;28;20262;-78
2024/02/28 10:54:11;;;;;;;8.40;7.70;;;10.60;99.90;;;;;;4991340;28;20333;-79
2024/02/28 10:56:38;;;;;;;8.70;7.90;;;10.40;99.90;;;;;;4992163;28;20224;-80
2024/02/28 10:59:07;;;;;;;9.02;8.27;;;10.40;99.90;;;;;;4990807;28;20231;-81
2024/02/28 11:01:36;;;;;;;9.23;8.32;;;10.50;99.90;;;;;;4990313;28;20303;-80
2024/02/28 11:04:05;;;;;;;8.45;7.75;;;11.00;99.90;;;;;;4995977;28;20220;-78
2024/02/28 11:06:32;;;;;;;9.45;8.65;;;11.40;99.90;;;;;;4991670;28;21066;-79
2024/02/28 11:09:00;;;;;;;8.57;7.80;;;11.60;99.90;;;;;;4995135;28;20243;-77
2024/02/28 11:11:32;;;;;;;8.05;7.35;;;11.90;99.90;;;;;;4995552;28;20306;-79
2024/02/28 11:14:00;;;;;;;7.88;6.85;;;12.20;99.90;;;;;;4996308;28;20236;-75
2024/02/28 11:16:29;;;;;;;6.57;6.07;;;12.50;99.90;;;;;;4995812;28;20228;-81
2024/02/28 11:18:58;;;;;;;7.10;6.53;;;12.60;99.90;;;;;;4996205;28;20270;-77
2024/02/28 11:21:28;;;;;;;7.13;6.43;;;12.50;99.90;;;;;;4993498;28;20726;-80
2024/02/28 11:23:59;;;;;;;6.18;5.68;;;12.30;99.90;;;;;;4990590;28;20695;-80
2024/02/28 11:26:27;;;;;;;7.38;6.78;;;12.10;99.90;;;;;;4999607;28;20291;-82
2024/02/28 11:28:54;;;;;;;7.00;6.50;;;12.00;99.90;;;;;;4996740;28;20252;-78
2024/02/28 11:31:22;;;;;;;6.97;6.47;;;12.20;99.90;;;;;;4996215;28;20232;-79
2024/02/28 11:33:49;;;;;;;6.50;6.00;;;12.20;99.90;;;;;;4993528;28;20435;-79
2024/02/28 11:36:17;;;;;;;7.28;6.65;;;12.60;99.90;;;;;;4993683;28;20256;-84
2024/02/28 11:38:46;;;;;;;6.63;6.05;;;12.90;99.90;;;;;;4991451;28;20240;-80
2024/02/28 11:41:13;;;;;;;6.90;6.30;;;13.10;99.90;;;;;;4995354;28;20211;-81
2024/02/28 11:43:39;;;;;;;6.68;6.10;;;13.30;99.90;;;;;;4988901;28;20224;-80
2024/02/28 11:46:10;;;;;;;6.57;6.07;;;13.50;99.90;;;;;;4989553;28;20478;-80
2024/02/28 11:48:38;;;;;;;6.45;5.95;;;13.60;99.90;;;;;;4986848;28;20517;-82
2024/02/28 11:51:05;;;;;;;5.63;5.10;;;13.60;99.90;;;;;;5035069;28;20219;-83
2024/02/28 11:53:33;;;;;;;8.18;5.93;;;13.50;99.90;;;;;;5033668;28;20246;-78
2024/02/28 11:56:00;;;;;;;5.60;5.20;;;13.10;99.90;;;;;;5034056;28;20242;-81
2024/02/28 11:58:28;;;;;;;4.97;4.57;;;12.80;99.90;;;;;;5035127;28;20231;-80
2024/02/28 12:00:55;;;;;;;5.38;4.88;;;12.30;99.90;;;;;;5029007;28;20307;-80
2024/02/28 12:03:23;;;;;;;5.20;4.82;;;12.00;99.90;;;;;;5036718;28;20749;-78
2024/02/28 12:05:50;;;;;;;5.47;4.75;;;11.80;99.90;;;;;;5033164;28;20262;-80
2024/02/28 12:08:19;;;;;;;5.43;5.03;;;11.60;99.90;;;;;;5028213;28;20312;-81
2024/02/28 12:10:48;;;;;;;4.63;4.30;;;11.60;99.90;;;;;;5034551;28;20223;-77
2024/02/28 12:13:17;;;;;;;4.65;4.25;;;11.60;99.90;;;;;;5034628;28;20332;-80
2024/02/28 12:15:45;;;;;;;4.50;4.18;;;11.60;99.90;;;;;;5032162;28;20741;-79
2024/02/28 12:18:12;;;;;;;4.25;3.95;;;11.60;99.90;;;;;;5032896;28;20281;-82
2024/02/28 12:20:39;;;;;;;4.03;3.72;;;11.60;99.90;;;;;;5028621;28;20721;-83
2024/02/28 12:23:08;;;;;;;4.20;3.90;;;11.70;99.90;;;;;;5036300;28;20312;-81
2024/02/28 12:25:36;;;;;;;4.28;3.97;;;11.90;99.90;;;;;;5033450;28;20227;-81
2024/02/28 12:28:06;;;;;;;4.28;3.97;;;12.10;99.90;;;;;;5034343;28;20222;-82
2024/02/28 12:30:41;;;;;;;4.13;3.83;;;12.10;99.90;;;;;;5032381;28;20218;-82
2024/02/28 12:33:08;;;;;;;3.60;3.40;;;12.10;99.90;;;;;;5037374;28;20305;-82
2024/02/28 12:35:35;;;;;;;3.92;3.63;;;12.20;99.90;;;;;;5031385;28;20314;-82
2024/02/28 12:38:02;;;;;;;3.97;3.78;;;12.20;99.90;;;;;;5030160;28;20291;-81
2024/02/28 12:40:29;;;;;;;4.63;4.22;;;12.30;99.90;;;;;;5024556;28;20224;-84
2024/02/28 12:42:56;;;;;;;3.83;3.58;;;12.30;99.90;;;;;;5032447;28;20222;-85
2024/02/28 12:45:24;;;;;;;5.10;4.57;;;12.20;99.90;;;;;;5035558;28;20254;-80
2024/02/28 12:47:53;;;;;;;5.10;4.70;;;12.30;99.90;;;;;;5035940;28;20757;-81
2024/02/28 12:50:21;;;;;;;4.95;4.55;;;12.50;99.90;;;;;;5033540;28;20994;-83
2024/02/28 12:52:53;;;;;;;4.55;4.15;;;12.90;99.90;;;;;;5036108;28;20312;-80
2024/02/28 12:55:21;;;;;;;4.38;4.07;;;13.10;99.90;;;;;;5033383;28;20216;-83